createdAt,value
2022-10-22T00:01:20.458Z,10.70
2022-10-22T00:04:32.854Z,12.20
2022-10-22T00:07:43.977Z,10.70
2022-10-22T00:10:53.114Z,11.90
2022-10-22T00:14:02.864Z,9.60
2022-10-22T00:17:11.764Z,12.20
2022-10-22T00:20:20.746Z,14.20
2022-10-22T00:23:28.776Z,10.90
2022-10-22T00:26:36.766Z,11.30
2022-10-22T00:29:45.516Z,10.50
2022-10-22T00:32:53.850Z,10.60
2022-10-22T00:36:03.194Z,11.90
2022-10-22T00:39:14.037Z,12.10
2022-10-22T00:42:29.604Z,10.00
2022-10-22T00:45:38.374Z,10.90
2022-10-22T00:48:46.464Z,10.50
2022-10-22T00:51:54.986Z,10.50
2022-10-22T00:55:04.226Z,11.80
2022-10-22T00:58:14.265Z,13.60
2022-10-22T01:07:49.066Z,11.00
2022-10-22T01:11:15.559Z,11.60
2022-10-22T01:14:37.234Z,12.40
2022-10-22T01:17:57.289Z,9.30
2022-10-22T01:21:16.583Z,10.70
2022-10-22T01:24:41.148Z,13.90
2022-10-22T01:28:07.944Z,11.30
2022-10-22T01:31:19.758Z,11.20
2022-10-22T01:34:30.100Z,11.00
2022-10-22T01:37:44.357Z,11.10
2022-10-22T01:40:54.768Z,12.50
2022-10-22T01:44:03.332Z,13.50
2022-10-22T01:47:27.790Z,12.50
2022-10-22T01:51:08.816Z,11.70
2022-10-22T01:54:31.010Z,11.70
2022-10-22T01:57:52.940Z,10.80
2022-10-22T02:01:10.203Z,10.90
2022-10-22T02:04:27.121Z,8.90
2022-10-22T02:07:41.679Z,9.40
2022-10-22T02:10:54.786Z,12.00
2022-10-22T02:14:06.880Z,12.10
2022-10-22T02:17:20.585Z,14.50
2022-10-22T02:20:34.491Z,12.90
2022-10-22T02:23:43.456Z,11.30
2022-10-22T02:27:01.876Z,12.30
2022-10-22T02:33:31.079Z,11.30
2022-10-22T02:36:44.441Z,12.90
2022-10-22T02:39:57.527Z,11.60
2022-10-22T02:43:09.444Z,14.60
2022-10-22T02:46:17.256Z,12.90
2022-10-22T02:49:25.375Z,13.00
2022-10-22T02:52:33.511Z,15.70
2022-10-22T02:55:42.189Z,15.40
2022-10-22T02:58:49.997Z,15.60
2022-10-22T03:01:58.296Z,14.00
2022-10-22T03:05:06.967Z,13.90
2022-10-22T03:08:15.063Z,14.90
2022-10-22T03:11:22.917Z,13.40
2022-10-22T03:14:30.941Z,15.90
2022-10-22T03:17:38.804Z,14.00
2022-10-22T03:20:47.571Z,14.20
2022-10-22T03:23:57.110Z,16.10
2022-10-22T03:27:07.168Z,13.20
2022-10-22T03:30:16.391Z,11.00
2022-10-22T03:33:24.472Z,13.20
2022-10-22T03:36:32.882Z,12.00
2022-10-22T03:39:42.068Z,10.60
2022-10-22T03:42:50.285Z,11.70
2022-10-22T03:45:58.255Z,10.90
2022-10-22T03:49:05.931Z,9.70
2022-10-22T03:52:16.369Z,10.60
2022-10-22T03:55:24.695Z,10.60
2022-10-22T03:58:32.758Z,10.30
2022-10-22T04:01:40.857Z,11.00
2022-10-22T04:04:49.197Z,10.10
2022-10-22T04:07:56.987Z,10.70
2022-10-22T04:11:05.142Z,12.20
2022-10-22T04:14:13.212Z,13.20
2022-10-22T04:17:21.339Z,11.70
2022-10-22T04:20:29.215Z,13.10
2022-10-22T04:23:38.012Z,10.60
2022-10-22T04:26:46.188Z,12.50
2022-10-22T04:29:54.108Z,12.20
2022-10-22T04:33:01.784Z,10.60
2022-10-22T04:36:15.107Z,12.20
2022-10-22T04:39:22.844Z,13.90
2022-10-22T04:42:32.981Z,11.80
2022-10-22T04:45:40.985Z,10.20
2022-10-22T04:48:49.926Z,12.00
2022-10-22T04:51:58.397Z,11.20
2022-10-22T04:55:07.163Z,11.60
2022-10-22T04:58:14.889Z,10.30
2022-10-22T05:01:26.576Z,10.00
2022-10-22T05:04:34.684Z,12.40
2022-10-22T05:07:43.072Z,10.60
2022-10-22T05:10:51.064Z,11.80
2022-10-22T05:14:01.977Z,10.20
2022-10-22T05:17:10.161Z,12.20
2022-10-22T05:20:18.601Z,11.80
2022-10-22T05:23:28.258Z,10.90
2022-10-22T05:26:36.401Z,10.60
2022-10-22T05:29:44.572Z,10.70
2022-10-22T05:32:52.651Z,10.40
2022-10-22T05:36:01.915Z,11.70
2022-10-22T05:39:11.289Z,12.90
2022-10-22T05:42:19.140Z,11.60
2022-10-22T05:45:27.251Z,14.60
2022-10-22T05:48:36.004Z,12.70
2022-10-22T05:51:44.079Z,12.20
2022-10-22T05:54:51.814Z,13.00
2022-10-22T05:58:02.930Z,13.10
2022-10-22T06:01:16.133Z,10.80
2022-10-22T06:04:24.026Z,11.10
2022-10-22T06:07:33.424Z,11.40
2022-10-22T06:10:44.665Z,11.50
2022-10-22T06:17:05.346Z,10.90
2022-10-22T06:20:15.856Z,10.70
2022-10-22T06:23:24.738Z,10.70
2022-10-22T06:26:33.698Z,14.20
2022-10-22T06:29:44.153Z,10.80
2022-10-22T06:32:54.494Z,11.50
2022-10-22T06:39:18.719Z,12.20
2022-10-22T06:42:26.923Z,13.90
2022-10-22T06:45:34.810Z,13.10
2022-10-22T06:48:43.790Z,11.90
2022-10-22T06:51:54.687Z,20.70
2022-10-22T06:55:03.443Z,14.10
2022-10-22T06:58:11.674Z,19.80
2022-10-22T07:01:21.936Z,17.70
2022-10-22T07:04:29.832Z,20.20
2022-10-22T07:07:38.163Z,22.60
2022-10-22T07:10:45.871Z,15.80
2022-10-22T07:13:55.704Z,15.60
2022-10-22T07:17:03.494Z,13.00
2022-10-22T07:20:14.013Z,15.40
2022-10-22T07:23:21.815Z,11.70
2022-10-22T07:26:31.236Z,14.30
2022-10-22T07:29:39.147Z,12.90
2022-10-22T07:32:47.284Z,11.60
2022-10-22T07:36:00.992Z,12.20
2022-10-22T07:39:09.270Z,13.30
2022-10-22T07:42:17.858Z,13.90
2022-10-22T07:45:26.018Z,15.10
2022-10-22T07:48:33.714Z,14.00
2022-10-22T07:51:41.698Z,14.80
2022-10-22T07:54:49.416Z,14.00
2022-10-22T07:57:58.988Z,14.30
2022-10-22T08:01:06.931Z,16.50
2022-10-22T08:04:15.124Z,14.20
2022-10-22T08:07:22.825Z,14.20
2022-10-22T08:10:31.889Z,16.00
2022-10-22T08:13:44.828Z,15.60
2022-10-22T08:16:54.089Z,14.20
2022-10-22T08:20:01.779Z,17.20
2022-10-22T08:23:10.391Z,18.70
2022-10-22T08:26:18.309Z,14.40
2022-10-22T08:29:26.989Z,14.20
2022-10-22T08:32:35.224Z,14.70
2022-10-22T08:35:44.060Z,16.60
2022-10-22T08:38:52.166Z,17.40
2022-10-22T08:42:28.828Z,15.10
2022-10-22T08:45:46.383Z,25.70
2022-10-22T08:48:58.668Z,17.30
2022-10-22T08:52:07.012Z,19.30
2022-10-22T08:55:18.799Z,16.80
2022-10-22T08:58:36.638Z,17.00
2022-10-22T09:01:49.379Z,17.20
2022-10-22T09:05:12.275Z,18.20
2022-10-22T09:08:22.914Z,17.10
2022-10-22T09:11:36.097Z,17.70
2022-10-22T09:14:44.454Z,15.90
2022-10-22T09:18:19.481Z,17.10
2022-10-22T09:21:37.845Z,17.00
2022-10-22T09:24:50.566Z,20.30
2022-10-22T09:27:59.698Z,17.60
2022-10-22T09:31:15.923Z,15.60
2022-10-22T09:34:26.025Z,16.80
2022-10-22T09:37:35.068Z,16.20
2022-10-22T09:40:52.571Z,16.30
2022-10-22T09:44:00.737Z,17.00
2022-10-22T09:47:42.709Z,17.00
2022-10-22T09:51:08.231Z,19.40
2022-10-22T09:54:25.748Z,16.80
2022-10-22T09:57:38.729Z,18.20
2022-10-22T10:00:55.863Z,16.90
2022-10-22T10:04:11.420Z,16.30
2022-10-22T10:07:26.762Z,18.70
2022-10-22T10:10:46.770Z,17.60
2022-10-22T10:14:06.351Z,16.10
2022-10-22T10:17:27.390Z,15.40
2022-10-22T10:20:47.501Z,16.60
2022-10-22T10:24:04.556Z,15.80
2022-10-22T10:27:21.815Z,17.80
2022-10-22T10:30:30.023Z,15.20
2022-10-22T10:33:54.550Z,14.50
2022-10-22T10:37:19.996Z,21.40
2022-10-22T10:40:40.967Z,19.80
2022-10-22T10:44:06.219Z,18.50
2022-10-22T10:47:34.008Z,15.10
2022-10-22T10:50:55.720Z,19.30
2022-10-22T10:54:23.541Z,16.60
2022-10-22T10:57:48.007Z,17.70
2022-10-22T11:01:03.816Z,16.90
2022-10-22T11:04:54.689Z,17.60
2022-10-22T11:08:07.840Z,18.70
2022-10-22T11:11:23.571Z,14.90
2022-10-22T11:14:40.637Z,16.90
2022-10-22T11:17:53.285Z,18.50
2022-10-22T11:21:18.620Z,16.20
2022-10-22T11:24:34.501Z,19.10
2022-10-22T11:27:50.225Z,15.60
2022-10-22T11:31:06.408Z,17.00
2022-10-22T11:34:38.619Z,16.50
2022-10-22T11:37:49.210Z,18.00
2022-10-22T11:41:03.081Z,16.70
2022-10-22T11:44:22.408Z,16.10
2022-10-22T11:47:34.148Z,18.20
2022-10-22T11:50:56.857Z,16.70
2022-10-22T11:54:33.198Z,15.00
2022-10-22T11:57:44.916Z,17.20
2022-10-22T12:00:53.897Z,16.20
2022-10-22T12:04:43.182Z,30.80
2022-10-22T12:08:00.873Z,15.20
2022-10-22T12:11:29.892Z,16.80
2022-10-22T12:14:53.177Z,16.70
2022-10-22T12:18:08.314Z,16.70
2022-10-22T12:21:19.022Z,17.70
2022-10-22T12:24:31.739Z,19.10
2022-10-22T12:27:42.488Z,17.10
2022-10-22T12:30:50.569Z,16.00
2022-10-22T12:34:05.758Z,16.80
2022-10-22T12:37:17.051Z,19.50
2022-10-22T12:40:29.087Z,20.70
2022-10-22T12:43:39.666Z,19.70
2022-10-22T12:46:53.068Z,19.40
2022-10-22T12:50:09.258Z,20.60
2022-10-22T12:53:24.082Z,21.70
2022-10-22T12:56:37.836Z,20.40
2022-10-22T12:59:49.964Z,24.60
2022-10-22T13:03:04.363Z,39.60
2022-10-22T13:06:27.619Z,32.50
2022-10-22T13:09:44.499Z,23.50
2022-10-22T13:12:58.679Z,21.90
2022-10-22T13:16:24.314Z,22.10
2022-10-22T13:20:05.560Z,18.40
2022-10-22T13:23:26.657Z,20.30
2022-10-22T13:26:40.002Z,21.00
2022-10-22T13:29:48.775Z,28.30
2022-10-22T13:33:00.412Z,21.60
2022-10-22T13:36:11.383Z,24.30
2022-10-22T13:39:23.536Z,23.30
2022-10-22T13:42:31.506Z,22.60
2022-10-22T13:45:40.044Z,19.00
2022-10-22T13:48:50.503Z,17.80
2022-10-22T13:52:01.309Z,18.70
2022-10-22T13:55:20.127Z,20.30
2022-10-22T13:58:28.976Z,22.20
2022-10-22T14:01:37.762Z,19.50
2022-10-22T14:04:47.143Z,18.30
2022-10-22T14:07:58.419Z,16.50
2022-10-22T14:11:07.123Z,18.40
2022-10-22T14:14:17.509Z,15.90
2022-10-22T14:17:25.896Z,18.40
2022-10-22T14:20:37.616Z,19.30
2022-10-22T14:23:48.584Z,20.20
2022-10-22T14:26:56.620Z,18.80
2022-10-22T14:30:05.137Z,17.10
2022-10-22T14:33:20.892Z,19.80
2022-10-22T14:36:29.614Z,16.60
2022-10-22T14:39:38.109Z,20.70
2022-10-22T14:42:49.116Z,17.20
2022-10-22T14:45:57.181Z,15.90
2022-10-22T14:49:05.267Z,20.70
2022-10-22T14:52:14.915Z,18.60
2022-10-22T14:55:24.239Z,16.30
2022-10-22T14:58:31.951Z,18.40
2022-10-22T15:01:42.635Z,19.20
2022-10-22T15:04:50.583Z,17.10
2022-10-22T15:07:59.557Z,17.80
2022-10-22T15:11:11.531Z,20.20
2022-10-22T15:14:19.419Z,17.80
2022-10-22T15:17:27.239Z,22.70
2022-10-22T15:20:35.551Z,18.80
2022-10-22T15:23:43.383Z,17.80
2022-10-22T15:26:54.261Z,22.40
2022-10-22T15:33:11.020Z,21.10
2022-10-22T15:36:20.361Z,17.80
2022-10-22T15:39:29.261Z,20.30
2022-10-22T15:42:37.171Z,21.10
2022-10-22T15:45:45.559Z,21.10
2022-10-22T15:48:55.459Z,20.50
2022-10-22T15:52:04.326Z,22.10
2022-10-22T15:58:25.843Z,21.00
2022-10-22T16:01:35.826Z,21.20
2022-10-22T16:04:44.133Z,20.20
2022-10-22T16:07:55.770Z,29.50
2022-10-22T16:11:04.147Z,22.30
2022-10-22T16:14:14.814Z,21.90
2022-10-22T16:17:23.502Z,21.40
2022-10-22T16:20:31.352Z,21.90
2022-10-22T16:23:39.671Z,21.10
2022-10-22T16:26:47.875Z,22.40
2022-10-22T16:29:56.860Z,21.30
2022-10-22T16:33:05.658Z,21.30
2022-10-22T16:36:18.094Z,23.10
2022-10-22T16:39:26.054Z,24.10
2022-10-22T16:42:34.220Z,24.20
2022-10-22T16:45:48.006Z,23.10
2022-10-22T16:48:57.384Z,27.60
2022-10-22T16:52:05.633Z,24.80
2022-10-22T16:55:14.471Z,28.90
2022-10-22T16:58:22.645Z,31.60
2022-10-22T17:01:31.537Z,28.30
2022-10-22T17:04:40.133Z,26.40
2022-10-22T17:07:48.470Z,25.30
2022-10-22T17:10:57.046Z,26.40
2022-10-22T17:14:05.424Z,27.30
2022-10-22T17:17:13.300Z,29.00
2022-10-22T17:20:21.901Z,22.80
2022-10-22T17:23:29.924Z,25.50
2022-10-22T17:26:38.030Z,24.20
2022-10-22T17:29:45.907Z,34.60
2022-10-22T17:32:55.002Z,25.30
2022-10-22T17:36:03.604Z,26.80
2022-10-22T17:39:17.143Z,23.40
2022-10-22T17:42:24.915Z,22.60
2022-10-22T17:45:33.212Z,23.70
2022-10-22T17:48:41.670Z,23.10
2022-10-22T17:51:50.195Z,23.40
2022-10-22T17:54:58.431Z,23.10
2022-10-22T17:58:06.369Z,20.50
2022-10-22T18:01:23.534Z,23.00
2022-10-22T18:04:34.248Z,25.00
2022-10-22T18:07:42.004Z,22.70
2022-10-22T18:10:50.447Z,24.60
2022-10-22T18:14:00.108Z,36.40
2022-10-22T18:17:08.515Z,24.60
2022-10-22T18:20:17.287Z,23.30
2022-10-22T18:23:25.423Z,30.60
2022-10-22T18:26:33.450Z,31.20
2022-10-22T18:29:41.863Z,32.90
2022-10-22T18:32:51.900Z,27.20
2022-10-22T18:36:04.225Z,24.80
2022-10-22T18:39:15.989Z,25.90
2022-10-22T18:42:25.483Z,23.50
2022-10-22T18:45:35.624Z,25.00
2022-10-22T18:48:43.679Z,22.70
2022-10-22T18:51:53.382Z,24.30
2022-10-22T18:58:08.204Z,22.80
2022-10-22T19:01:19.867Z,24.40
2022-10-22T19:04:33.321Z,23.80
2022-10-22T19:07:42.282Z,24.60
2022-10-22T19:10:50.910Z,24.50
2022-10-22T19:14:00.843Z,24.20
2022-10-22T19:20:16.217Z,22.90
2022-10-22T19:23:24.007Z,28.00
2022-10-22T19:26:33.967Z,24.50
2022-10-22T19:32:49.926Z,26.30
2022-10-22T19:35:57.979Z,29.40
2022-10-22T19:39:07.831Z,26.70
2022-10-22T19:42:15.564Z,25.50
2022-10-22T19:45:23.652Z,28.10
2022-10-22T19:48:31.726Z,32.50
2022-10-22T19:51:40.254Z,29.70
2022-10-22T19:54:48.379Z,31.70
2022-10-22T19:57:56.851Z,30.80
2022-10-22T20:01:10.854Z,29.80
2022-10-22T20:04:25.057Z,31.70
2022-10-22T20:07:33.593Z,33.10
2022-10-22T20:10:41.926Z,32.80
2022-10-22T20:13:52.269Z,32.30
2022-10-22T20:17:00.650Z,34.20
2022-10-22T20:20:10.565Z,30.90
2022-10-22T20:26:28.276Z,31.60
2022-10-22T20:29:36.719Z,29.70
2022-10-22T20:32:44.912Z,31.60
2022-10-22T20:36:03.751Z,30.10
2022-10-22T20:39:16.547Z,31.00
2022-10-22T20:42:24.602Z,32.80
2022-10-22T20:45:32.954Z,34.20
2022-10-22T20:48:43.195Z,32.30
2022-10-22T20:51:51.419Z,33.20
2022-10-22T20:55:00.115Z,32.70
2022-10-22T20:58:08.269Z,32.60
2022-10-22T21:01:21.481Z,31.30
2022-10-22T21:04:31.031Z,31.50
2022-10-22T21:07:39.920Z,30.30
2022-10-22T21:10:49.315Z,31.70
2022-10-22T21:13:57.451Z,28.90
2022-10-22T21:17:05.320Z,30.40
2022-10-22T21:20:14.026Z,33.10
2022-10-22T21:23:22.134Z,28.90
2022-10-22T21:26:31.078Z,30.00
2022-10-22T21:29:39.294Z,31.20
2022-10-22T21:32:47.260Z,27.20
2022-10-22T21:35:59.841Z,31.00
2022-10-22T21:39:08.217Z,32.50
2022-10-22T21:42:19.709Z,33.90
2022-10-22T21:45:27.725Z,33.30
2022-10-22T21:48:35.435Z,34.80
2022-10-22T21:51:44.360Z,30.20
2022-10-22T21:54:52.823Z,31.80
2022-10-22T21:58:01.294Z,32.50
2022-10-22T22:01:10.184Z,38.80
2022-10-22T22:04:18.456Z,38.40
2022-10-22T22:07:26.681Z,36.60
2022-10-22T22:10:35.039Z,32.40
2022-10-22T22:13:43.828Z,34.00
2022-10-22T22:16:51.829Z,32.20
2022-10-22T22:20:00.545Z,32.20
2022-10-22T22:23:08.729Z,34.00
2022-10-22T22:26:20.080Z,34.00
2022-10-22T22:29:28.937Z,36.90
2022-10-22T22:32:37.777Z,42.80
2022-10-22T22:35:46.055Z,39.80
2022-10-22T22:38:57.887Z,38.90
2022-10-22T22:42:06.007Z,37.00
2022-10-22T22:45:14.841Z,41.50
2022-10-22T22:48:22.843Z,37.20
2022-10-22T22:51:30.832Z,38.20
2022-10-22T22:54:39.179Z,38.30
2022-10-22T22:57:47.162Z,37.60
2022-10-22T23:00:55.809Z,37.70
2022-10-22T23:04:06.242Z,35.40
2022-10-22T23:07:14.560Z,39.90
2022-10-22T23:10:22.977Z,41.70
2022-10-22T23:13:31.183Z,44.50
2022-10-22T23:16:45.658Z,44.70
2022-10-22T23:19:54.170Z,84.40
2022-10-22T23:23:02.076Z,39.20
2022-10-22T23:26:13.673Z,104.90
2022-10-22T23:29:24.861Z,66.20
2022-10-22T23:32:32.854Z,143.80
2022-10-22T23:35:44.244Z,45.70
2022-10-22T23:38:52.180Z,172.60
2022-10-22T23:42:02.061Z,163.00
2022-10-22T23:45:11.778Z,140.30
2022-10-22T23:48:19.904Z,259.40
2022-10-22T23:51:28.296Z,115.10
2022-10-22T23:54:36.388Z,200.40
2022-10-22T23:57:44.526Z,136.10
